sensor_id;sensor_type;location;lat;lon;timestamp;pressure;altitude;pressure_sealevel;temperature;humidity
43488;BME280;29078;41.932;25.554;2023-05-16T00:00:49;99422.38;;;16.56;66.02
43488;BME280;29078;41.932;25.554;2023-05-16T00:03:17;99413.13;;;16.58;66.20
43488;BME280;29078;41.932;25.554;2023-05-16T00:05:43;99403.28;;;16.59;65.93
43488;BME280;29078;41.932;25.554;2023-05-16T00:08:08;99393.66;;;16.58;66.17
43488;BME280;29078;41.932;25.554;2023-05-16T00:10:33;99401.22;;;16.61;65.39
43488;BME280;29078;41.932;25.554;2023-05-16T00:12:58;99394.91;;;16.55;66.32
43488;BME280;29078;41.932;25.554;2023-05-16T00:15:26;99403.13;;;16.53;66.48
43488;BME280;29078;41.932;25.554;2023-05-16T00:17:53;99396.53;;;16.56;65.61
43488;BME280;29078;41.932;25.554;2023-05-16T00:20:22;99386.31;;;16.53;65.64
43488;BME280;29078;41.932;25.554;2023-05-16T00:22:48;99387.34;;;16.52;66.57
43488;BME280;29078;41.932;25.554;2023-05-16T00:25:14;99381.59;;;16.55;66.62
43488;BME280;29078;41.932;25.554;2023-05-16T00:27:39;99369.28;;;16.54;66.19
43488;BME280;29078;41.932;25.554;2023-05-16T00:30:04;99376.69;;;16.52;66.73
43488;BME280;29078;41.932;25.554;2023-05-16T00:32:30;99391.88;;;16.51;65.27
43488;BME280;29078;41.932;25.554;2023-05-16T00:34:55;99394.16;;;16.48;66.08
43488;BME280;29078;41.932;25.554;2023-05-16T00:37:21;99394.97;;;16.48;65.90
43488;BME280;29078;41.932;25.554;2023-05-16T00:39:46;99396.63;;;16.49;65.06
43488;BME280;29078;41.932;25.554;2023-05-16T00:42:11;99393.94;;;16.49;65.31
43488;BME280;29078;41.932;25.554;2023-05-16T00:44:37;99391.13;;;16.44;66.40
43488;BME280;29078;41.932;25.554;2023-05-16T00:47:03;99389.50;;;16.43;66.22
43488;BME280;29078;41.932;25.554;2023-05-16T00:49:28;99393.63;;;16.39;65.28
43488;BME280;29078;41.932;25.554;2023-05-16T00:51:54;99378.91;;;16.37;64.73
43488;BME280;29078;41.932;25.554;2023-05-16T00:54:21;99386.06;;;16.36;65.31
43488;BME280;29078;41.932;25.554;2023-05-16T00:56:47;99392.44;;;16.35;65.12
43488;BME280;29078;41.932;25.554;2023-05-16T00:59:12;99396.31;;;16.33;65.60
43488;BME280;29078;41.932;25.554;2023-05-16T01:01:37;99394.69;;;16.32;65.16
43488;BME280;29078;41.932;25.554;2023-05-16T01:04:03;99391.44;;;16.30;65.33
43488;BME280;29078;41.932;25.554;2023-05-16T01:06:28;99391.66;;;16.28;65.15
43488;BME280;29078;41.932;25.554;2023-05-16T01:08:53;99394.53;;;16.27;65.53
43488;BME280;29078;41.932;25.554;2023-05-16T01:16:21;99388.41;;;16.26;65.53
43488;BME280;29078;41.932;25.554;2023-05-16T01:18:51;99388.00;;;16.23;64.70
43488;BME280;29078;41.932;25.554;2023-05-16T01:21:26;99396.00;;;16.23;64.92
43488;BME280;29078;41.932;25.554;2023-05-16T01:24:02;99386.59;;;16.20;64.90
43488;BME280;29078;41.932;25.554;2023-05-16T01:26:28;99391.34;;;16.18;64.40
43488;BME280;29078;41.932;25.554;2023-05-16T01:28:54;99387.03;;;16.17;64.93
43488;BME280;29078;41.932;25.554;2023-05-16T01:31:20;99374.16;;;16.14;64.70
43488;BME280;29078;41.932;25.554;2023-05-16T01:33:46;99369.53;;;16.03;65.99
43488;BME280;29078;41.932;25.554;2023-05-16T01:36:23;99365.28;;;15.95;65.01
43488;BME280;29078;41.932;25.554;2023-05-16T01:41:27;99364.06;;;15.98;64.68
43488;BME280;29078;41.932;25.554;2023-05-16T01:43:56;99363.00;;;15.99;64.55
43488;BME280;29078;41.932;25.554;2023-05-16T01:46:24;99359.91;;;16.02;64.92
43488;BME280;29078;41.932;25.554;2023-05-16T01:48:57;99363.41;;;16.02;64.63
43488;BME280;29078;41.932;25.554;2023-05-16T01:51:27;99361.97;;;16.00;64.61
43488;BME280;29078;41.932;25.554;2023-05-16T01:53:54;99363.84;;;15.99;64.69
43488;BME280;29078;41.932;25.554;2023-05-16T01:56:22;99359.09;;;16.01;64.51
43488;BME280;29078;41.932;25.554;2023-05-16T01:58:49;99358.88;;;16.03;65.46
43488;BME280;29078;41.932;25.554;2023-05-16T02:01:16;99355.41;;;16.02;65.02
43488;BME280;29078;41.932;25.554;2023-05-16T02:03:41;99354.38;;;16.03;65.16
43488;BME280;29078;41.932;25.554;2023-05-16T02:06:06;99352.97;;;16.01;64.65
43488;BME280;29078;41.932;25.554;2023-05-16T02:08:32;99339.28;;;15.97;65.43
43488;BME280;29078;41.932;25.554;2023-05-16T02:10:57;99340.69;;;16.00;65.04
43488;BME280;29078;41.932;25.554;2023-05-16T02:13:22;99331.06;;;15.99;65.23
43488;BME280;29078;41.932;25.554;2023-05-16T02:15:47;99331.28;;;15.97;65.89
43488;BME280;29078;41.932;25.554;2023-05-16T02:18:13;99332.31;;;15.96;65.47
43488;BME280;29078;41.932;25.554;2023-05-16T02:20:38;99327.44;;;15.93;66.03
43488;BME280;29078;41.932;25.554;2023-05-16T02:23:04;99312.47;;;15.92;65.59
43488;BME280;29078;41.932;25.554;2023-05-16T02:25:29;99312.09;;;15.88;66.71
43488;BME280;29078;41.932;25.554;2023-05-16T02:27:54;99314.75;;;15.88;65.79
43488;BME280;29078;41.932;25.554;2023-05-16T02:30:20;99311.28;;;15.88;65.45
43488;BME280;29078;41.932;25.554;2023-05-16T02:32:45;99310.25;;;15.89;65.60
43488;BME280;29078;41.932;25.554;2023-05-16T02:35:12;99310.25;;;15.89;65.91
43488;BME280;29078;41.932;25.554;2023-05-16T02:37:38;99303.91;;;15.90;66.13
43488;BME280;29078;41.932;25.554;2023-05-16T02:40:04;99293.03;;;15.92;64.97
43488;BME280;29078;41.932;25.554;2023-05-16T02:42:33;99299.38;;;15.91;65.16
43488;BME280;29078;41.932;25.554;2023-05-16T02:44:58;99300.41;;;15.89;65.63
43488;BME280;29078;41.932;25.554;2023-05-16T02:47:23;99298.78;;;15.88;66.39
43488;BME280;29078;41.932;25.554;2023-05-16T02:49:49;99307.44;;;15.84;66.72
43488;BME280;29078;41.932;25.554;2023-05-16T02:52:16;99309.50;;;15.82;66.18
43488;BME280;29078;41.932;25.554;2023-05-16T02:54:41;99308.47;;;15.83;66.56
43488;BME280;29078;41.932;25.554;2023-05-16T02:57:06;99316.00;;;15.86;65.88
43488;BME280;29078;41.932;25.554;2023-05-16T02:59:32;99316.66;;;15.81;66.33
43488;BME280;29078;41.932;25.554;2023-05-16T03:01:57;99313.19;;;15.81;66.36
43488;BME280;29078;41.932;25.554;2023-05-16T03:04:22;99307.06;;;15.80;66.23
43488;BME280;29078;41.932;25.554;2023-05-16T03:06:47;99300.09;;;15.79;66.18
43488;BME280;29078;41.932;25.554;2023-05-16T03:09:13;99295.00;;;15.78;66.63
43488;BME280;29078;41.932;25.554;2023-05-16T03:11:38;99300.75;;;15.75;66.77
43488;BME280;29078;41.932;25.554;2023-05-16T03:14:03;99296.28;;;15.69;67.24
43488;BME280;29078;41.932;25.554;2023-05-16T03:16:29;99309.00;;;15.67;66.48
43488;BME280;29078;41.932;25.554;2023-05-16T03:18:54;99302.28;;;15.64;66.88
43488;BME280;29078;41.932;25.554;2023-05-16T03:21:20;99300.00;;;15.68;66.04
43488;BME280;29078;41.932;25.554;2023-05-16T03:23:45;99297.50;;;15.73;65.50
43488;BME280;29078;41.932;25.554;2023-05-16T03:26:10;99290.31;;;15.73;66.13
43488;BME280;29078;41.932;25.554;2023-05-16T03:28:36;99286.03;;;15.72;66.22
43488;BME280;29078;41.932;25.554;2023-05-16T03:31:01;99283.00;;;15.69;66.78
43488;BME280;29078;41.932;25.554;2023-05-16T03:33:26;99280.75;;;15.66;66.73
43488;BME280;29078;41.932;25.554;2023-05-16T03:35:51;99283.22;;;15.67;65.84
43488;BME280;29078;41.932;25.554;2023-05-16T03:38:17;99288.75;;;15.66;65.76
43488;BME280;29078;41.932;25.554;2023-05-16T03:40:43;99295.09;;;15.65;66.70
43488;BME280;29078;41.932;25.554;2023-05-16T03:43:08;99296.72;;;15.66;66.19
43488;BME280;29078;41.932;25.554;2023-05-16T03:45:33;99294.28;;;15.64;65.85
43488;BME280;29078;41.932;25.554;2023-05-16T03:47:59;99289.56;;;15.66;66.04
43488;BME280;29078;41.932;25.554;2023-05-16T03:50:24;99297.13;;;15.69;66.25
43488;BME280;29078;41.932;25.554;2023-05-16T03:52:50;99300.38;;;15.71;65.87
43488;BME280;29078;41.932;25.554;2023-05-16T03:55:17;99305.47;;;15.73;65.43
43488;BME280;29078;41.932;25.554;2023-05-16T03:57:43;99304.66;;;15.72;65.58
43488;BME280;29078;41.932;25.554;2023-05-16T04:00:09;99320.41;;;15.74;65.95
43488;BME280;29078;41.932;25.554;2023-05-16T04:02:36;99317.38;;;15.70;66.13
43488;BME280;29078;41.932;25.554;2023-05-16T04:05:01;99317.38;;;15.70;65.34
43488;BME280;29078;41.932;25.554;2023-05-16T04:07:27;99313.69;;;15.71;65.82
43488;BME280;29078;41.932;25.554;2023-05-16T04:09:53;99327.63;;;15.67;65.22
43488;BME280;29078;41.932;25.554;2023-05-16T04:12:18;99320.09;;;15.64;65.58
43488;BME280;29078;41.932;25.554;2023-05-16T04:14:43;99318.25;;;15.64;65.61
43488;BME280;29078;41.932;25.554;2023-05-16T04:17:08;99319.44;;;15.68;65.37
43488;BME280;29078;41.932;25.554;2023-05-16T04:19:35;99320.03;;;15.70;65.00
43488;BME280;29078;41.932;25.554;2023-05-16T04:22:00;99320.03;;;15.70;64.90
43488;BME280;29078;41.932;25.554;2023-05-16T04:24:26;99321.66;;;15.71;65.50
43488;BME280;29078;41.932;25.554;2023-05-16T04:26:53;99319.47;;;15.62;65.84
43488;BME280;29078;41.932;25.554;2023-05-16T04:29:18;99323.19;;;15.61;65.70
43488;BME280;29078;41.932;25.554;2023-05-16T04:31:43;99324.16;;;15.66;65.72
43488;BME280;29078;41.932;25.554;2023-05-16T04:34:08;99332.69;;;15.75;65.61
43488;BME280;29078;41.932;25.554;2023-05-16T04:36:34;99326.72;;;15.79;66.08
43488;BME280;29078;41.932;25.554;2023-05-16T04:38:59;99322.59;;;15.83;66.13
43488;BME280;29078;41.932;25.554;2023-05-16T04:41:25;99330.53;;;15.90;65.28
43488;BME280;29078;41.932;25.554;2023-05-16T04:43:50;99329.28;;;15.93;66.23
43488;BME280;29078;41.932;25.554;2023-05-16T04:46:15;99327.81;;;15.97;65.38
43488;BME280;29078;41.932;25.554;2023-05-16T04:48:41;99332.47;;;16.01;65.10
43488;BME280;29078;41.932;25.554;2023-05-16T04:51:06;99325.47;;;16.07;65.21
43488;BME280;29078;41.932;25.554;2023-05-16T04:53:32;99317.63;;;16.12;65.16
43488;BME280;29078;41.932;25.554;2023-05-16T04:55:57;99322.94;;;16.12;65.73
43488;BME280;29078;41.932;25.554;2023-05-16T04:58:22;99320.72;;;16.09;65.50
43488;BME280;29078;41.932;25.554;2023-05-16T05:00:48;99322.13;;;16.11;67.08
43488;BME280;29078;41.932;25.554;2023-05-16T05:03:13;99322.72;;;16.13;65.52
43488;BME280;29078;41.932;25.554;2023-05-16T05:05:39;99319.19;;;16.19;65.59
43488;BME280;29078;41.932;25.554;2023-05-16T05:08:04;99323.63;;;16.26;65.22
43488;BME280;29078;41.932;25.554;2023-05-16T05:10:30;99316.84;;;16.30;64.98
43488;BME280;29078;41.932;25.554;2023-05-16T05:12:56;99325.06;;;16.28;66.27
43488;BME280;29078;41.932;25.554;2023-05-16T05:15:21;99329.41;;;16.23;65.18
43488;BME280;29078;41.932;25.554;2023-05-16T05:17:46;99332.88;;;16.23;65.41
43488;BME280;29078;41.932;25.554;2023-05-16T05:20:11;99332.66;;;16.25;65.80
43488;BME280;29078;41.932;25.554;2023-05-16T05:22:37;99335.94;;;16.27;64.88
43488;BME280;29078;41.932;25.554;2023-05-16T05:25:02;99330.81;;;16.25;66.01
43488;BME280;29078;41.932;25.554;2023-05-16T05:27:28;99320.53;;;16.29;65.46
43488;BME280;29078;41.932;25.554;2023-05-16T05:29:53;99328.91;;;16.32;65.07
43488;BME280;29078;41.932;25.554;2023-05-16T05:32:18;99327.66;;;16.35;65.21
43488;BME280;29078;41.932;25.554;2023-05-16T05:34:44;99328.66;;;16.40;65.15
43488;BME280;29078;41.932;25.554;2023-05-16T05:37:09;99331.03;;;16.48;65.30
43488;BME280;29078;41.932;25.554;2023-05-16T05:39:34;99325.16;;;16.58;64.83
43488;BME280;29078;41.932;25.554;2023-05-16T05:42:00;99317.53;;;16.62;64.96
43488;BME280;29078;41.932;25.554;2023-05-16T05:44:27;99322.50;;;16.58;64.83
43488;BME280;29078;41.932;25.554;2023-05-16T05:46:52;99321.09;;;16.56;64.98
43488;BME280;29078;41.932;25.554;2023-05-16T05:49:18;99317.84;;;16.53;65.27
43488;BME280;29078;41.932;25.554;2023-05-16T05:51:43;99321.25;;;16.61;64.93
43488;BME280;29078;41.932;25.554;2023-05-16T05:54:08;99314.44;;;16.65;65.26
43488;BME280;29078;41.932;25.554;2023-05-16T05:56:34;99315.56;;;16.75;64.62
43488;BME280;29078;41.932;25.554;2023-05-16T05:58:59;99314.22;;;16.84;64.22
43488;BME280;29078;41.932;25.554;2023-05-16T06:01:25;99317.03;;;16.90;64.33
43488;BME280;29078;41.932;25.554;2023-05-16T06:03:51;99319.63;;;16.96;64.03
43488;BME280;29078;41.932;25.554;2023-05-16T06:06:16;99314.19;;;17.03;63.55
43488;BME280;29078;41.932;25.554;2023-05-16T06:08:41;99317.22;;;17.06;63.84
43488;BME280;29078;41.932;25.554;2023-05-16T06:11:07;99311.47;;;17.09;64.54
43488;BME280;29078;41.932;25.554;2023-05-16T06:13:33;99306.50;;;17.13;63.63
43488;BME280;29078;41.932;25.554;2023-05-16T06:15:58;99314.06;;;17.16;64.16
43488;BME280;29078;41.932;25.554;2023-05-16T06:18:23;99322.41;;;17.20;63.88
43488;BME280;29078;41.932;25.554;2023-05-16T06:20:48;99322.31;;;17.26;63.86
43488;BME280;29078;41.932;25.554;2023-05-16T06:23:14;99325.94;;;17.32;62.96
43488;BME280;29078;41.932;25.554;2023-05-16T06:25:39;99318.75;;;17.32;63.78
43488;BME280;29078;41.932;25.554;2023-05-16T06:28:05;99312.91;;;17.24;64.88
43488;BME280;29078;41.932;25.554;2023-05-16T06:30:30;99322.69;;;17.30;64.18
43488;BME280;29078;41.932;25.554;2023-05-16T06:32:56;99320.59;;;17.32;64.62
43488;BME280;29078;41.932;25.554;2023-05-16T06:35:22;99322.59;;;17.36;64.06
43488;BME280;29078;41.932;25.554;2023-05-16T06:37:47;99313.09;;;17.40;64.17
43488;BME280;29078;41.932;25.554;2023-05-16T06:40:12;99316.94;;;17.44;63.88
43488;BME280;29078;41.932;25.554;2023-05-16T06:42:38;99308.47;;;17.47;63.93
43488;BME280;29078;41.932;25.554;2023-05-16T06:45:03;99300.00;;;17.51;64.15
43488;BME280;29078;41.932;25.554;2023-05-16T06:47:28;99292.00;;;17.51;64.25
43488;BME280;29078;41.932;25.554;2023-05-16T06:49:54;99281.66;;;17.54;63.87
43488;BME280;29078;41.932;25.554;2023-05-16T06:52:19;99279.13;;;17.59;63.97
43488;BME280;29078;41.932;25.554;2023-05-16T06:54:45;99287.47;;;17.63;64.15
43488;BME280;29078;41.932;25.554;2023-05-16T06:57:10;99288.06;;;17.65;63.98
43488;BME280;29078;41.932;25.554;2023-05-16T06:59:35;99281.03;;;17.70;63.81
43488;BME280;29078;41.932;25.554;2023-05-16T07:02:00;99283.22;;;17.73;64.47
43488;BME280;29078;41.932;25.554;2023-05-16T07:04:26;99282.53;;;17.78;63.77
43488;BME280;29078;41.932;25.554;2023-05-16T07:06:51;99272.22;;;17.82;64.38
43488;BME280;29078;41.932;25.554;2023-05-16T07:09:17;99278.28;;;17.89;63.22
43488;BME280;29078;41.932;25.554;2023-05-16T07:11:42;99279.22;;;17.94;63.22
43488;BME280;29078;41.932;25.554;2023-05-16T07:14:07;99286.88;;;18.02;63.01
43488;BME280;29078;41.932;25.554;2023-05-16T07:16:33;99284.09;;;18.09;62.39
43488;BME280;29078;41.932;25.554;2023-05-16T07:18:59;99301.38;;;18.18;62.84
43488;BME280;29078;41.932;25.554;2023-05-16T07:21:24;99287.09;;;18.24;62.08
43488;BME280;29078;41.932;25.554;2023-05-16T07:23:49;99289.41;;;18.32;62.81
43488;BME280;29078;41.932;25.554;2023-05-16T07:26:15;99300.22;;;18.37;62.03
43488;BME280;29078;41.932;25.554;2023-05-16T07:28:40;99297.88;;;18.41;61.95
43488;BME280;29078;41.932;25.554;2023-05-16T07:31:05;99287.28;;;18.46;61.65
43488;BME280;29078;41.932;25.554;2023-05-16T07:33:32;99280.78;;;18.54;61.48
43488;BME280;29078;41.932;25.554;2023-05-16T07:35:57;99270.59;;;18.62;60.46
43488;BME280;29078;41.932;25.554;2023-05-16T07:38:23;99264.19;;;18.63;60.71
43488;BME280;29078;41.932;25.554;2023-05-16T07:40:48;99252.78;;;18.68;61.09
43488;BME280;29078;41.932;25.554;2023-05-16T07:43:13;99265.44;;;18.72;60.90
43488;BME280;29078;41.932;25.554;2023-05-16T07:45:38;99265.19;;;18.74;60.83
43488;BME280;29078;41.932;25.554;2023-05-16T07:48:04;99247.75;;;18.71;61.16
43488;BME280;29078;41.932;25.554;2023-05-16T07:50:29;99243.69;;;18.69;60.68
43488;BME280;29078;41.932;25.554;2023-05-16T07:52:54;99254.63;;;18.67;61.30
43488;BME280;29078;41.932;25.554;2023-05-16T07:55:20;99246.38;;;18.69;61.24
43488;BME280;29078;41.932;25.554;2023-05-16T07:57:46;99239.97;;;18.70;61.39
43488;BME280;29078;41.932;25.554;2023-05-16T08:00:12;99233.56;;;18.71;61.05
43488;BME280;29078;41.932;25.554;2023-05-16T08:02:37;99236.81;;;18.73;60.95
43488;BME280;29078;41.932;25.554;2023-05-16T08:05:03;99234.00;;;18.80;60.13
43488;BME280;29078;41.932;25.554;2023-05-16T08:07:28;99230.03;;;18.82;60.06
43488;BME280;29078;41.932;25.554;2023-05-16T08:09:54;99231.53;;;18.90;59.94
43488;BME280;29078;41.932;25.554;2023-05-16T08:12:19;99224.50;;;19.00;59.58
43488;BME280;29078;41.932;25.554;2023-05-16T08:14:44;99215.75;;;19.05;60.03
43488;BME280;29078;41.932;25.554;2023-05-16T08:17:10;99237.72;;;19.07;59.43
43488;BME280;29078;41.932;25.554;2023-05-16T08:19:35;99248.91;;;19.04;59.75
43488;BME280;29078;41.932;25.554;2023-05-16T08:22:00;99258.13;;;18.96;59.64
43488;BME280;29078;41.932;25.554;2023-05-16T08:24:25;99255.44;;;18.96;59.88
43488;BME280;29078;41.932;25.554;2023-05-16T08:26:51;99254.72;;;19.01;59.94
43488;BME280;29078;41.932;25.554;2023-05-16T08:29:16;99268.28;;;19.11;59.46
43488;BME280;29078;41.932;25.554;2023-05-16T08:31:41;99283.47;;;19.22;59.30
43488;BME280;29078;41.932;25.554;2023-05-16T08:34:07;99288.81;;;19.34;59.13
43488;BME280;29078;41.932;25.554;2023-05-16T08:36:33;99294.44;;;19.49;58.80
43488;BME280;29078;41.932;25.554;2023-05-16T08:38:59;99299.50;;;19.62;58.33
43488;BME280;29078;41.932;25.554;2023-05-16T08:41:24;99291.38;;;19.74;57.78
43488;BME280;29078;41.932;25.554;2023-05-16T08:43:50;99281.41;;;19.86;57.82
43488;BME280;29078;41.932;25.554;2023-05-16T08:46:16;99263.59;;;19.97;57.38
43488;BME280;29078;41.932;25.554;2023-05-16T08:48:44;99252.56;;;20.10;57.54
43488;BME280;29078;41.932;25.554;2023-05-16T08:51:10;99244.16;;;20.23;57.38
43488;BME280;29078;41.932;25.554;2023-05-16T08:53:38;99242.00;;;20.42;56.66
43488;BME280;29078;41.932;25.554;2023-05-16T08:56:05;99236.28;;;20.55;56.31
43488;BME280;29078;41.932;25.554;2023-05-16T08:58:31;99247.13;;;20.66;55.50
43488;BME280;29078;41.932;25.554;2023-05-16T09:00:56;99242.25;;;20.62;56.05
43488;BME280;29078;41.932;25.554;2023-05-16T09:03:22;99234.22;;;20.62;56.17
43488;BME280;29078;41.932;25.554;2023-05-16T09:05:49;99235.84;;;20.63;55.47
43488;BME280;29078;41.932;25.554;2023-05-16T09:08:14;99241.81;;;20.71;55.90
43488;BME280;29078;41.932;25.554;2023-05-16T09:10:40;99240.38;;;20.85;55.66
43488;BME280;29078;41.932;25.554;2023-05-16T09:13:05;99241.41;;;21.06;55.11
43488;BME280;29078;41.932;25.554;2023-05-16T09:15:31;99229.56;;;21.29;54.56
43488;BME280;29078;41.932;25.554;2023-05-16T09:17:58;99231.06;;;21.46;54.29
43488;BME280;29078;41.932;25.554;2023-05-16T09:20:24;99231.19;;;21.62;53.92
43488;BME280;29078;41.932;25.554;2023-05-16T09:22:50;99231.31;;;21.77;51.91
43488;BME280;29078;41.932;25.554;2023-05-16T09:25:16;99222.00;;;21.95;52.20
43488;BME280;29078;41.932;25.554;2023-05-16T09:27:42;99221.06;;;22.11;51.96
43488;BME280;29078;41.932;25.554;2023-05-16T09:30:07;99227.06;;;22.28;50.14
43488;BME280;29078;41.932;25.554;2023-05-16T09:32:33;99226.88;;;22.40;50.84
43488;BME280;29078;41.932;25.554;2023-05-16T09:34:58;99222.84;;;22.42;50.39
43488;BME280;29078;41.932;25.554;2023-05-16T09:37:23;99211.31;;;22.52;50.70
43488;BME280;29078;41.932;25.554;2023-05-16T09:39:50;99209.19;;;22.59;50.25
43488;BME280;29078;41.932;25.554;2023-05-16T09:42:16;99198.69;;;22.58;50.25
43488;BME280;29078;41.932;25.554;2023-05-16T09:44:45;99202.16;;;22.48;50.47
43488;BME280;29078;41.932;25.554;2023-05-16T09:47:13;99195.44;;;22.56;48.78
43488;BME280;29078;41.932;25.554;2023-05-16T09:49:38;99189.28;;;22.70;49.67
43488;BME280;29078;41.932;25.554;2023-05-16T09:52:04;99187.19;;;22.88;49.62
43488;BME280;29078;41.932;25.554;2023-05-16T09:54:33;99182.09;;;22.96;49.63
43488;BME280;29078;41.932;25.554;2023-05-16T09:56:58;99176.44;;;22.82;49.96
43488;BME280;29078;41.932;25.554;2023-05-16T09:59:24;99170.72;;;22.64;50.66
43488;BME280;29078;41.932;25.554;2023-05-16T10:01:50;99167.97;;;22.48;51.04
43488;BME280;29078;41.932;25.554;2023-05-16T10:04:16;99164.47;;;22.43;51.26
43488;BME280;29078;41.932;25.554;2023-05-16T10:06:42;99169.06;;;22.52;51.39
43488;BME280;29078;41.932;25.554;2023-05-16T10:09:11;99167.75;;;22.65;51.18
43488;BME280;29078;41.932;25.554;2023-05-16T10:11:40;99149.72;;;22.61;51.30
43488;BME280;29078;41.932;25.554;2023-05-16T10:14:06;99134.91;;;22.53;51.53
43488;BME280;29078;41.932;25.554;2023-05-16T10:16:31;99124.66;;;22.40;51.85
43488;BME280;29078;41.932;25.554;2023-05-16T10:18:57;99121.34;;;22.23;52.19
43488;BME280;29078;41.932;25.554;2023-05-16T10:21:24;99112.69;;;22.10;52.72
43488;BME280;29078;41.932;25.554;2023-05-16T10:23:49;99093.53;;;22.02;52.79
43488;BME280;29078;41.932;25.554;2023-05-16T10:26:15;99070.41;;;21.96;52.96
43488;BME280;29078;41.932;25.554;2023-05-16T10:28:41;99049.16;;;21.94;53.41
43488;BME280;29078;41.932;25.554;2023-05-16T10:31:06;99025.78;;;22.00;53.02
43488;BME280;29078;41.932;25.554;2023-05-16T10:33:32;99026.66;;;22.05;53.08
43488;BME280;29078;41.932;25.554;2023-05-16T10:35:57;99063.50;;;22.10;53.34
43488;BME280;29078;41.932;25.554;2023-05-16T10:38:22;99097.97;;;22.28;53.07
43488;BME280;29078;41.932;25.554;2023-05-16T10:40:48;99141.91;;;22.54;52.62
43488;BME280;29078;41.932;25.554;2023-05-16T10:43:24;99164.00;;;22.71;52.38
43488;BME280;29078;41.932;25.554;2023-05-16T10:45:58;99143.31;;;22.92;51.77
43488;BME280;29078;41.932;25.554;2023-05-16T10:50:54;99143.09;;;23.09;51.52
43488;BME280;29078;41.932;25.554;2023-05-16T10:58:44;99123.16;;;23.05;51.78
43488;BME280;29078;41.932;25.554;2023-05-16T11:01:15;99117.50;;;23.06;51.91
43488;BME280;29078;41.932;25.554;2023-05-16T11:06:21;99107.53;;;22.97;51.64
43488;BME280;29078;41.932;25.554;2023-05-16T11:09:06;99106.72;;;22.91;52.05
43488;BME280;29078;41.932;25.554;2023-05-16T11:14:03;99074.91;;;22.78;52.47
43488;BME280;29078;41.932;25.554;2023-05-16T11:16:28;99071.41;;;22.77;51.69
43488;BME280;29078;41.932;25.554;2023-05-16T11:18:54;99058.22;;;22.76;52.19
43488;BME280;29078;41.932;25.554;2023-05-16T11:21:19;99053.66;;;22.97;52.08
43488;BME280;29078;41.932;25.554;2023-05-16T11:23:45;99056.88;;;23.29;50.44
43488;BME280;29078;41.932;25.554;2023-05-16T11:26:30;99058.22;;;23.37;51.07
43488;BME280;29078;41.932;25.554;2023-05-16T11:28:55;99057.13;;;23.33;51.27
43488;BME280;29078;41.932;25.554;2023-05-16T11:31:22;99065.22;;;23.28;51.01
43488;BME280;29078;41.932;25.554;2023-05-16T11:33:47;99047.22;;;23.13;51.13
43488;BME280;29078;41.932;25.554;2023-05-16T11:36:13;99048.84;;;23.04;51.48
43488;BME280;29078;41.932;25.554;2023-05-16T11:38:38;99045.59;;;23.02;51.41
43488;BME280;29078;41.932;25.554;2023-05-16T11:41:07;99055.28;;;23.03;51.62
43488;BME280;29078;41.932;25.554;2023-05-16T11:43:42;99060.16;;;23.06;51.46
43488;BME280;29078;41.932;25.554;2023-05-16T11:46:11;99071.72;;;23.11;51.41
43488;BME280;29078;41.932;25.554;2023-05-16T11:48:36;99078.19;;;23.21;51.32
43488;BME280;29078;41.932;25.554;2023-05-16T11:51:01;99072.19;;;23.49;51.07
43488;BME280;29078;41.932;25.554;2023-05-16T11:53:27;99078.59;;;23.84;50.48
43488;BME280;29078;41.932;25.554;2023-05-16T11:55:52;99069.31;;;24.10;49.82
43488;BME280;29078;41.932;25.554;2023-05-16T11:58:18;99072.72;;;24.31;49.36
43488;BME280;29078;41.932;25.554;2023-05-16T12:00:47;99067.53;;;24.39;49.42
43488;BME280;29078;41.932;25.554;2023-05-16T12:03:13;99063.44;;;24.47;49.08
43488;BME280;29078;41.932;25.554;2023-05-16T12:05:39;99071.03;;;24.40;49.04
43488;BME280;29078;41.932;25.554;2023-05-16T12:08:14;99072.19;;;24.29;49.86
43488;BME280;29078;41.932;25.554;2023-05-16T12:10:40;99077.63;;;24.14;50.16
43488;BME280;29078;41.932;25.554;2023-05-16T12:13:06;99081.75;;;24.01;50.46
43488;BME280;29078;41.932;25.554;2023-05-16T12:15:32;99078.84;;;23.87;50.73
43488;BME280;29078;41.932;25.554;2023-05-16T12:17:57;99081.03;;;23.75;51.12
43488;BME280;29078;41.932;25.554;2023-05-16T12:20:23;99075.97;;;23.58;50.85
43488;BME280;29078;41.932;25.554;2023-05-16T12:22:49;99063.03;;;23.45;51.14
43488;BME280;29078;41.932;25.554;2023-05-16T12:25:26;99053.63;;;23.37;51.64
43488;BME280;29078;41.932;25.554;2023-05-16T12:27:52;99053.91;;;23.31;51.76
43488;BME280;29078;41.932;25.554;2023-05-16T12:30:17;99055.00;;;23.25;51.97
43488;BME280;29078;41.932;25.554;2023-05-16T12:32:43;99057.16;;;23.23;52.13
43488;BME280;29078;41.932;25.554;2023-05-16T12:35:09;99057.16;;;23.23;51.97
43488;BME280;29078;41.932;25.554;2023-05-16T12:37:35;99057.44;;;23.26;52.28
43488;BME280;29078;41.932;25.554;2023-05-16T12:40:01;99057.16;;;23.28;52.07
43488;BME280;29078;41.932;25.554;2023-05-16T12:42:28;99053.66;;;23.27;52.14
43488;BME280;29078;41.932;25.554;2023-05-16T12:44:56;99061.47;;;23.29;51.83
43488;BME280;29078;41.932;25.554;2023-05-16T12:47:22;99061.47;;;23.29;51.89
43488;BME280;29078;41.932;25.554;2023-05-16T12:49:47;99055.81;;;23.25;52.43
43488;BME280;29078;41.932;25.554;2023-05-16T12:52:18;99050.94;;;23.32;52.38
43488;BME280;29078;41.932;25.554;2023-05-16T12:54:45;99047.13;;;23.43;52.30
43488;BME280;29078;41.932;25.554;2023-05-16T12:57:10;99044.69;;;23.57;51.99
43488;BME280;29078;41.932;25.554;2023-05-16T12:59:35;99045.50;;;23.63;51.53
43488;BME280;29078;41.932;25.554;2023-05-16T13:02:01;99046.03;;;23.65;51.67
43488;BME280;29078;41.932;25.554;2023-05-16T13:04:26;99034.72;;;23.63;51.93